createdAt,value
2017-09-22T00:00:04.933Z,84.60
2017-09-22T00:02:32.651Z,84.70
2017-09-22T00:05:00.438Z,84.80
2017-09-22T00:07:28.146Z,84.70
2017-09-22T00:09:55.803Z,84.60
2017-09-22T00:12:23.541Z,84.40
2017-09-22T00:14:51.191Z,84.30
2017-09-22T00:17:18.931Z,84.50
2017-09-22T00:19:46.635Z,84.30
2017-09-22T00:22:14.275Z,84.10
2017-09-22T00:24:41.923Z,84.00
2017-09-22T00:27:09.817Z,84.00
2017-09-22T00:29:37.563Z,84.00
2017-09-22T00:32:05.316Z,84.00
2017-09-22T00:34:33.163Z,84.40
2017-09-22T00:37:00.911Z,84.70
2017-09-22T00:39:28.657Z,85.00
2017-09-22T00:41:56.609Z,85.10
2017-09-22T00:44:24.310Z,84.70
2017-09-22T00:46:51.983Z,84.80
2017-09-22T00:49:19.748Z,84.60
2017-09-22T00:51:47.495Z,84.40
2017-09-22T00:54:15.243Z,84.60
2017-09-22T00:56:42.950Z,84.40
2017-09-22T00:59:10.635Z,84.50
2017-09-22T01:01:38.299Z,84.10
2017-09-22T01:04:06.089Z,84.30
2017-09-22T01:06:33.776Z,84.10
2017-09-22T01:09:01.421Z,84.00
2017-09-22T01:11:29.167Z,83.70
2017-09-22T01:13:56.819Z,83.90
2017-09-22T01:16:24.631Z,83.50
2017-09-22T01:18:52.409Z,83.50
2017-09-22T01:21:20.259Z,83.80
2017-09-22T01:23:47.904Z,84.10
2017-09-22T01:26:15.651Z,84.10
2017-09-22T01:28:43.398Z,84.70
2017-09-22T01:31:11.051Z,84.90
2017-09-22T01:33:38.791Z,85.30
2017-09-22T01:36:06.537Z,85.50
2017-09-22T01:38:34.287Z,85.50
2017-09-22T01:41:01.986Z,85.80
2017-09-22T01:43:29.644Z,85.80
2017-09-22T01:45:57.286Z,85.60
2017-09-22T01:48:24.983Z,85.20
2017-09-22T01:50:52.624Z,84.90
2017-09-22T01:53:20.263Z,84.70
2017-09-22T01:55:48.003Z,84.70
2017-09-22T01:58:15.753Z,84.70
2017-09-22T02:00:43.499Z,84.40
2017-09-22T02:03:11.246Z,84.30
2017-09-22T02:05:38.899Z,84.20
2017-09-22T02:08:06.638Z,84.30
2017-09-22T02:10:34.351Z,84.10
2017-09-22T02:13:01.998Z,83.90
2017-09-22T02:15:29.655Z,83.70
2017-09-22T02:17:57.427Z,83.80
2017-09-22T02:20:25.173Z,84.10
2017-09-22T02:22:52.922Z,84.70
2017-09-22T02:25:20.667Z,84.80
2017-09-22T02:27:48.314Z,85.10
2017-09-22T02:30:16.059Z,85.10
2017-09-22T02:32:43.809Z,85.10
2017-09-22T02:35:11.463Z,85.00
2017-09-22T02:37:39.112Z,84.60
2017-09-22T02:40:06.946Z,84.70
2017-09-22T02:42:34.695Z,84.80
2017-09-22T02:45:02.452Z,85.70
2017-09-22T02:47:30.189Z,85.90
2017-09-22T02:49:57.838Z,85.70
2017-09-22T02:52:25.492Z,85.80
2017-09-22T02:54:53.329Z,85.90
2017-09-22T02:57:21.076Z,85.80
2017-09-22T02:59:48.930Z,85.60
2017-09-22T03:02:16.723Z,86.10
2017-09-22T03:04:44.376Z,86.30
2017-09-22T03:07:12.030Z,86.30
2017-09-22T03:09:39.812Z,86.20
2017-09-22T03:12:07.558Z,85.80
2017-09-22T03:14:35.206Z,85.70
2017-09-22T03:17:02.954Z,85.70
2017-09-22T03:19:30.598Z,85.60
2017-09-22T03:21:58.345Z,85.90
2017-09-22T03:24:26.054Z,86.60
2017-09-22T03:26:53.695Z,86.70
2017-09-22T03:29:21.347Z,86.60
2017-09-22T03:31:50.154Z,86.40
2017-09-22T03:34:17.901Z,86.50
2017-09-22T03:36:45.648Z,86.40
2017-09-22T03:39:13.469Z,86.20
2017-09-22T03:41:41.122Z,86.10
2017-09-22T03:44:08.786Z,86.00
2017-09-22T03:46:36.533Z,85.70
2017-09-22T03:49:04.284Z,85.60
2017-09-22T03:51:32.031Z,85.60
2017-09-22T03:53:59.779Z,85.50
2017-09-22T03:56:27.526Z,85.40
2017-09-22T03:58:55.272Z,85.40
2017-09-22T04:01:23.020Z,85.30
2017-09-22T04:03:50.674Z,85.60
2017-09-22T04:06:18.412Z,86.10
2017-09-22T04:08:46.215Z,86.20
2017-09-22T04:11:13.907Z,85.70
2017-09-22T04:13:41.653Z,85.60
2017-09-22T04:16:09.401Z,85.70
2017-09-22T04:18:37.148Z,85.20
2017-09-22T04:21:04.800Z,85.40
2017-09-22T04:23:32.517Z,85.10
2017-09-22T04:26:00.167Z,84.50
2017-09-22T04:28:27.829Z,85.10
2017-09-22T04:30:55.631Z,85.50
2017-09-22T04:33:23.286Z,85.20
2017-09-22T04:35:50.937Z,85.30
2017-09-22T04:38:18.732Z,85.30
2017-09-22T04:40:46.466Z,85.10
2017-09-22T04:43:14.213Z,85.30
2017-09-22T04:45:41.960Z,85.80
2017-09-22T04:48:09.707Z,85.80
2017-09-22T04:50:37.454Z,86.20
2017-09-22T04:53:05.150Z,86.20
2017-09-22T04:55:32.795Z,86.10
2017-09-22T04:58:00.452Z,86.10
2017-09-22T05:00:28.241Z,86.20
2017-09-22T05:02:55.886Z,86.30
2017-09-22T05:05:23.633Z,86.10
2017-09-22T05:07:51.391Z,85.90
2017-09-22T05:10:19.127Z,85.90
2017-09-22T05:12:46.876Z,86.10
2017-09-22T05:15:14.591Z,86.60
2017-09-22T05:17:42.265Z,86.30
2017-09-22T05:20:09.907Z,86.30
2017-09-22T05:22:37.619Z,85.30
2017-09-22T05:25:05.268Z,84.50
2017-09-22T05:27:32.951Z,84.30
2017-09-22T05:30:00.698Z,84.40
2017-09-22T05:32:28.347Z,84.60
2017-09-22T05:34:55.992Z,84.00
2017-09-22T05:37:23.708Z,83.50
2017-09-22T05:39:51.359Z,83.60
2017-09-22T05:42:19.025Z,83.20
2017-09-22T05:44:46.730Z,82.40
2017-09-22T05:47:14.416Z,82.10
2017-09-22T05:49:42.063Z,82.00
2017-09-22T05:52:09.808Z,81.80
2017-09-22T05:54:37.455Z,81.40
2017-09-22T05:57:05.203Z,80.90
2017-09-22T05:59:32.891Z,80.20
2017-09-22T06:02:00.536Z,80.50
2017-09-22T06:04:28.239Z,80.80
2017-09-22T06:06:55.988Z,80.40
2017-09-22T06:09:23.640Z,80.10
2017-09-22T06:11:51.378Z,80.30
2017-09-22T06:14:19.116Z,80.00
2017-09-22T06:16:46.770Z,81.50
2017-09-22T06:19:14.619Z,82.30
2017-09-22T06:21:42.367Z,82.30
2017-09-22T06:24:10.115Z,82.50
2017-09-22T06:26:37.772Z,82.70
2017-09-22T06:29:05.509Z,81.90
2017-09-22T06:31:33.256Z,81.80
2017-09-22T06:34:01.003Z,81.80
2017-09-22T06:36:28.706Z,81.80
2017-09-22T06:38:56.394Z,81.70
2017-09-22T06:41:24.143Z,81.40
2017-09-22T06:43:51.890Z,81.30
2017-09-22T06:46:19.644Z,80.60
2017-09-22T06:48:47.383Z,79.90
2017-09-22T06:51:15.131Z,79.40
2017-09-22T06:53:42.807Z,78.40
2017-09-22T06:56:10.933Z,77.20
2017-09-22T06:58:38.782Z,77.20
2017-09-22T07:01:06.529Z,77.40
2017-09-22T07:03:34.280Z,76.80
2017-09-22T07:06:02.026Z,76.20
2017-09-22T07:08:29.774Z,75.20
2017-09-22T07:10:57.521Z,75.80
2017-09-22T07:13:25.311Z,75.20
2017-09-22T07:15:53.015Z,74.90
2017-09-22T07:18:20.664Z,74.20
2017-09-22T07:20:48.407Z,74.90
2017-09-22T07:23:16.155Z,74.60
2017-09-22T07:25:43.901Z,74.20
2017-09-22T07:28:11.754Z,73.70
2017-09-22T07:30:39.408Z,72.70
2017-09-22T07:33:07.063Z,72.40
2017-09-22T07:35:34.838Z,73.00
2017-09-22T07:38:02.478Z,73.60
2017-09-22T07:40:30.271Z,72.90
2017-09-22T07:42:57.963Z,72.30
2017-09-22T07:45:26.026Z,72.40
2017-09-22T07:47:53.731Z,72.40
2017-09-22T07:50:21.477Z,72.80
2017-09-22T07:52:49.226Z,72.20
2017-09-22T07:55:16.972Z,71.90
2017-09-22T07:57:44.720Z,71.20
2017-09-22T08:00:12.467Z,70.30
2017-09-22T08:02:40.215Z,70.30
2017-09-22T08:05:08.064Z,70.20
2017-09-22T08:07:35.727Z,70.50
2017-09-22T08:10:03.387Z,70.70
2017-09-22T08:12:31.515Z,67.40
2017-09-22T08:14:59.262Z,67.40
2017-09-22T08:17:27.007Z,68.70
2017-09-22T08:19:54.754Z,68.40
2017-09-22T08:22:22.406Z,70.30
2017-09-22T08:24:50.146Z,70.20
2017-09-22T08:27:17.852Z,70.50
2017-09-22T08:29:45.538Z,71.40
2017-09-22T08:32:13.185Z,70.70
2017-09-22T08:34:40.898Z,71.80
2017-09-22T08:37:08.575Z,72.40
2017-09-22T08:39:36.230Z,72.50
2017-09-22T08:42:03.947Z,72.30
2017-09-22T08:44:31.589Z,72.90
2017-09-22T08:46:59.231Z,72.80
2017-09-22T08:49:27.007Z,73.00
2017-09-22T08:51:54.759Z,73.40
2017-09-22T08:54:22.501Z,74.70
2017-09-22T08:56:50.214Z,74.60
2017-09-22T08:59:17.858Z,74.90
2017-09-22T09:01:45.508Z,74.70
2017-09-22T09:04:13.284Z,74.10
2017-09-22T09:06:41.034Z,73.50
2017-09-22T09:09:08.779Z,73.10
2017-09-22T09:11:36.526Z,72.60
2017-09-22T09:14:04.277Z,74.40
2017-09-22T09:16:32.024Z,74.10
2017-09-22T09:18:59.743Z,74.00
2017-09-22T09:21:27.398Z,73.80
2017-09-22T09:23:55.060Z,73.70
2017-09-22T09:26:22.811Z,73.80
2017-09-22T09:28:50.581Z,73.90
2017-09-22T09:31:18.712Z,74.10
2017-09-22T09:33:46.410Z,74.10
2017-09-22T09:36:14.102Z,73.80
2017-09-22T09:38:41.850Z,74.30
2017-09-22T09:41:09.597Z,74.40
2017-09-22T09:43:37.252Z,73.80
2017-09-22T09:46:04.993Z,71.50
2017-09-22T09:48:32.740Z,70.80
2017-09-22T09:51:00.486Z,71.50
2017-09-22T09:53:28.129Z,70.80
2017-09-22T09:55:55.942Z,70.80
2017-09-22T09:58:23.600Z,71.00
2017-09-22T10:00:51.270Z,69.40
2017-09-22T10:03:18.977Z,69.50
2017-09-22T10:05:46.662Z,68.40
2017-09-22T10:08:14.410Z,69.10
2017-09-22T10:10:42.160Z,69.00
2017-09-22T10:13:09.807Z,68.30
2017-09-22T10:15:37.548Z,68.70
2017-09-22T10:18:05.240Z,69.10
2017-09-22T10:20:32.896Z,69.00
2017-09-22T10:23:00.590Z,69.40
2017-09-22T10:25:28.335Z,68.80
2017-09-22T10:27:56.023Z,68.50
2017-09-22T10:30:23.829Z,69.10
2017-09-22T10:32:51.577Z,69.60
2017-09-22T10:35:19.324Z,68.80
2017-09-22T10:37:46.976Z,68.90
2017-09-22T10:40:14.715Z,68.40
2017-09-22T10:42:42.463Z,69.70
2017-09-22T10:45:10.210Z,69.50
2017-09-22T10:47:37.961Z,69.00
2017-09-22T10:50:05.611Z,69.80
2017-09-22T10:52:33.352Z,69.30
2017-09-22T10:55:01.102Z,68.70
2017-09-22T10:57:28.847Z,69.50
2017-09-22T10:59:56.490Z,69.20
2017-09-22T11:02:24.263Z,68.80
2017-09-22T11:04:52.312Z,68.20
2017-09-22T11:07:19.955Z,68.20
2017-09-22T11:09:47.787Z,69.30
2017-09-22T11:12:15.573Z,68.80
2017-09-22T11:14:43.690Z,68.70
2017-09-22T11:17:11.442Z,68.70
2017-09-22T11:19:39.184Z,67.10
2017-09-22T11:22:06.932Z,66.80
2017-09-22T11:24:34.731Z,66.70
2017-09-22T11:27:02.430Z,66.60
2017-09-22T11:29:30.070Z,66.30
2017-09-22T11:31:57.262Z,66.10
2017-09-22T11:34:24.954Z,67.00
2017-09-22T11:36:52.701Z,65.70
2017-09-22T11:39:20.406Z,66.30
2017-09-22T11:41:48.051Z,67.00
2017-09-22T11:44:15.738Z,67.10
2017-09-22T11:46:43.523Z,67.50
2017-09-22T11:49:11.232Z,67.90
2017-09-22T11:51:38.871Z,68.10
2017-09-22T11:54:06.630Z,67.70
2017-09-22T11:56:34.375Z,67.60
2017-09-22T11:59:02.121Z,67.40
2017-09-22T12:01:29.819Z,67.60
2017-09-22T12:03:57.513Z,67.50
2017-09-22T12:06:25.261Z,67.20
2017-09-22T12:08:53.007Z,66.50
2017-09-22T12:11:20.755Z,65.00
2017-09-22T12:13:48.501Z,66.20
2017-09-22T12:16:16.352Z,65.30
2017-09-22T12:18:44.099Z,65.20
2017-09-22T12:21:11.846Z,65.20
2017-09-22T12:23:39.594Z,65.40
2017-09-22T12:26:07.348Z,63.00
2017-09-22T12:28:35.090Z,63.70
2017-09-22T12:31:02.940Z,62.60
2017-09-22T12:33:30.687Z,63.60
2017-09-22T12:35:58.435Z,63.20
2017-09-22T12:38:26.184Z,61.70
2017-09-22T12:40:53.928Z,60.60
2017-09-22T12:43:21.676Z,60.50
2017-09-22T12:45:49.611Z,60.90
2017-09-22T12:48:17.271Z,61.60
2017-09-22T12:50:44.920Z,61.20
2017-09-22T12:53:12.876Z,62.60
2017-09-22T12:55:40.524Z,63.20
2017-09-22T12:58:08.363Z,62.50
2017-09-22T13:00:36.082Z,63.60
2017-09-22T13:03:03.760Z,62.90
2017-09-22T13:05:31.505Z,64.10
2017-09-22T13:07:59.355Z,64.10
2017-09-22T13:10:27.102Z,63.40
2017-09-22T13:12:54.849Z,65.10
2017-09-22T13:15:22.699Z,64.90
2017-09-22T13:17:50.446Z,64.90
2017-09-22T13:20:18.193Z,63.20
2017-09-22T13:22:46.445Z,63.10
2017-09-22T13:25:14.199Z,62.40
2017-09-22T13:27:41.848Z,62.00
2017-09-22T13:30:09.695Z,61.80
2017-09-22T13:32:37.441Z,62.80
2017-09-22T13:35:05.155Z,63.90
2017-09-22T13:37:32.938Z,63.90
2017-09-22T13:40:00.686Z,64.40
2017-09-22T13:42:28.381Z,64.10
2017-09-22T13:44:56.268Z,64.60
2017-09-22T13:47:23.944Z,64.70
2017-09-22T13:49:51.675Z,65.10
2017-09-22T13:52:19.468Z,65.70
2017-09-22T13:54:47.168Z,64.60
2017-09-22T13:57:14.917Z,64.70
2017-09-22T13:59:42.629Z,64.90
2017-09-22T14:02:10.286Z,66.40
2017-09-22T14:04:37.952Z,66.00
2017-09-22T14:07:05.804Z,65.70
2017-09-22T14:09:33.552Z,65.30
2017-09-22T14:12:01.204Z,65.00
2017-09-22T14:14:29.148Z,65.50
2017-09-22T14:16:56.867Z,64.70
2017-09-22T14:19:24.540Z,65.30
2017-09-22T14:21:52.601Z,66.50
2017-09-22T14:24:20.342Z,67.20
2017-09-22T14:26:48.089Z,68.40
2017-09-22T14:29:15.802Z,68.40
2017-09-22T14:31:43.446Z,68.10
2017-09-22T14:34:11.142Z,68.60
2017-09-22T14:36:38.873Z,68.30
2017-09-22T14:39:06.540Z,68.40
2017-09-22T14:41:34.268Z,69.20
2017-09-22T14:44:01.966Z,70.00
2017-09-22T14:46:29.660Z,68.70
2017-09-22T14:48:57.406Z,68.80
2017-09-22T14:51:25.219Z,68.10
2017-09-22T14:53:52.900Z,68.90
2017-09-22T14:56:20.648Z,68.00
2017-09-22T14:58:48.416Z,67.70
2017-09-22T15:01:16.142Z,68.60
2017-09-22T15:03:43.799Z,67.80
2017-09-22T15:06:11.637Z,67.70
2017-09-22T15:08:39.384Z,67.60
2017-09-22T15:11:07.131Z,65.70
2017-09-22T15:13:34.882Z,65.70
2017-09-22T15:16:02.550Z,66.20
2017-09-22T15:18:30.273Z,64.80
2017-09-22T15:20:58.020Z,64.40
2017-09-22T15:23:25.675Z,64.90
2017-09-22T15:25:53.415Z,65.20
2017-09-22T15:28:21.159Z,65.70
2017-09-22T15:30:48.906Z,66.60
2017-09-22T15:33:16.654Z,66.50
2017-09-22T15:35:44.347Z,67.10
2017-09-22T15:38:12.045Z,67.20
2017-09-22T15:40:39.735Z,66.90
2017-09-22T15:43:07.846Z,66.60
2017-09-22T15:45:35.598Z,66.60
2017-09-22T15:48:03.344Z,67.50
2017-09-22T15:50:31.197Z,67.40
2017-09-22T15:52:58.941Z,67.40
2017-09-22T15:55:26.592Z,67.90
2017-09-22T15:57:54.382Z,67.40
2017-09-22T16:00:22.062Z,68.10
2017-09-22T16:02:49.726Z,69.00
2017-09-22T16:05:17.575Z,69.70
2017-09-22T16:07:45.322Z,69.30
2017-09-22T16:10:12.982Z,70.20
2017-09-22T16:12:40.714Z,72.20
2017-09-22T16:15:08.363Z,71.40
2017-09-22T16:17:36.106Z,71.60
2017-09-22T16:20:03.823Z,71.90
2017-09-22T16:22:31.502Z,71.90
2017-09-22T16:24:59.248Z,72.40
2017-09-22T16:27:26.995Z,73.00
2017-09-22T16:29:54.648Z,73.50
2017-09-22T16:32:22.387Z,74.00
2017-09-22T16:34:50.134Z,74.00
2017-09-22T16:37:17.881Z,74.90
2017-09-22T16:39:45.543Z,74.60
2017-09-22T16:42:13.659Z,75.70
2017-09-22T16:44:41.326Z,75.70
2017-09-22T16:47:09.074Z,76.50
2017-09-22T16:49:36.821Z,76.50
2017-09-22T16:52:04.572Z,76.60
2017-09-22T16:54:32.318Z,76.70
2017-09-22T16:57:00.066Z,77.20
2017-09-22T16:59:27.812Z,77.60
2017-09-22T17:01:55.457Z,77.90
2017-09-22T17:04:23.151Z,77.60
2017-09-22T17:06:50.849Z,77.40
2017-09-22T17:09:18.693Z,77.20
2017-09-22T17:11:46.447Z,77.90
2017-09-22T17:14:14.101Z,78.30
2017-09-22T17:16:41.839Z,78.30
2017-09-22T17:19:09.688Z,78.30
2017-09-22T17:21:37.435Z,78.70
2017-09-22T17:24:05.186Z,78.70
2017-09-22T17:26:32.933Z,79.30
2017-09-22T17:29:00.680Z,79.40
2017-09-22T17:31:28.347Z,79.30
2017-09-22T17:33:56.481Z,79.90
2017-09-22T17:36:24.229Z,79.90
2017-09-22T17:38:51.980Z,80.00
2017-09-22T17:41:19.691Z,80.10
2017-09-22T17:43:47.340Z,80.40
2017-09-22T17:46:15.113Z,80.80
2017-09-22T17:48:42.964Z,80.70
2017-09-22T17:51:10.715Z,81.00
2017-09-22T17:53:38.458Z,81.30
2017-09-22T17:56:06.167Z,81.50
2017-09-22T17:58:33.852Z,81.80
2017-09-22T18:01:01.600Z,81.90
2017-09-22T18:03:29.355Z,82.00
2017-09-22T18:05:57.100Z,82.10
2017-09-22T18:08:24.842Z,82.40
2017-09-22T18:10:52.538Z,82.60
2017-09-22T18:13:20.236Z,83.00
2017-09-22T18:15:47.981Z,83.30
2017-09-22T18:18:15.719Z,83.00
2017-09-22T18:20:43.474Z,83.00
2017-09-22T18:23:11.221Z,83.40
2017-09-22T18:25:38.928Z,83.30
2017-09-22T18:28:06.614Z,83.60
2017-09-22T18:30:34.364Z,83.70
2017-09-22T18:33:02.112Z,83.90
2017-09-22T18:35:29.864Z,84.20
2017-09-22T18:37:57.625Z,84.10
2017-09-22T18:40:25.455Z,84.70
2017-09-22T18:42:53.644Z,85.20
2017-09-22T18:45:21.871Z,85.40
2017-09-22T18:47:50.236Z,85.40
2017-09-22T18:50:18.210Z,85.40
2017-09-22T18:52:46.259Z,85.00
2017-09-22T18:55:14.089Z,85.00
2017-09-22T18:57:41.836Z,84.90
2017-09-22T19:00:09.583Z,85.00
2017-09-22T19:02:37.639Z,85.10
2017-09-22T19:05:05.279Z,85.10
2017-09-22T19:07:32.972Z,84.90
2017-09-22T19:10:01.303Z,84.90
2017-09-22T19:12:29.043Z,85.20
2017-09-22T19:14:56.695Z,84.90
2017-09-22T19:17:24.409Z,84.90
2017-09-22T19:19:53.694Z,85.30
2017-09-22T19:22:22.030Z,85.30
2017-09-22T19:24:49.837Z,85.30
2017-09-22T19:27:17.566Z,85.10
2017-09-22T19:29:45.467Z,85.20
2017-09-22T19:32:13.818Z,85.60
2017-09-22T19:34:41.883Z,85.60
2017-09-22T19:37:09.638Z,85.90
2017-09-22T19:39:37.610Z,85.80
2017-09-22T19:42:05.857Z,86.00
2017-09-22T19:44:33.851Z,85.10
2017-09-22T19:47:01.899Z,84.70
2017-09-22T19:49:29.846Z,84.50
2017-09-22T19:51:57.771Z,84.70
2017-09-22T19:54:26.226Z,85.90
2017-09-22T19:56:54.113Z,85.90
2017-09-22T19:59:21.778Z,85.70
2017-09-22T20:01:49.494Z,85.70
2017-09-22T20:04:17.544Z,86.70
2017-09-22T20:06:45.590Z,86.20
2017-09-22T20:09:13.425Z,86.20
2017-09-22T20:11:41.071Z,86.80
2017-09-22T20:14:08.731Z,87.00
2017-09-22T20:16:36.973Z,86.70
2017-09-22T20:19:04.724Z,86.50
2017-09-22T20:21:32.400Z,86.40
2017-09-22T20:24:00.838Z,86.30
2017-09-22T20:26:28.495Z,86.30
2017-09-22T20:28:56.223Z,86.30
2017-09-22T20:31:23.924Z,86.10
2017-09-22T20:33:51.642Z,85.80
2017-09-22T20:36:19.699Z,85.50
2017-09-22T20:38:47.840Z,85.30
2017-09-22T20:41:15.499Z,85.30
2017-09-22T20:43:43.631Z,85.40
2017-09-22T20:46:11.476Z,85.40
2017-09-22T20:48:39.225Z,85.50
2017-09-22T20:51:06.881Z,86.10
2017-09-22T20:53:34.594Z,86.10
2017-09-22T20:56:02.264Z,86.70
2017-09-22T20:58:30.012Z,86.70
2017-09-22T21:00:57.860Z,86.80
2017-09-22T21:03:25.527Z,86.70
2017-09-22T21:05:53.662Z,86.40
2017-09-22T21:08:21.376Z,86.40
2017-09-22T21:10:49.019Z,85.70
2017-09-22T21:13:16.656Z,86.00
2017-09-22T21:15:44.371Z,86.40
2017-09-22T21:18:12.407Z,86.50
2017-09-22T21:20:40.059Z,86.50
2017-09-22T21:23:07.789Z,86.70
2017-09-22T21:25:35.540Z,86.90
2017-09-22T21:28:03.188Z,86.90
2017-09-22T21:30:30.901Z,87.00
2017-09-22T21:32:58.544Z,87.40
2017-09-22T21:35:26.196Z,88.00
2017-09-22T21:37:53.910Z,87.70
2017-09-22T21:40:21.559Z,87.60
2017-09-22T21:42:49.226Z,87.10
2017-09-22T21:45:17.027Z,86.80
2017-09-22T21:47:44.753Z,86.40
2017-09-22T21:50:12.400Z,86.20
2017-09-22T21:52:40.119Z,85.90
2017-09-22T21:55:07.776Z,85.70
2017-09-22T21:57:35.475Z,85.90
2017-09-22T22:00:03.698Z,86.10
2017-09-22T22:02:37.292Z,86.10
2017-09-22T22:05:10.544Z,86.00
2017-09-22T22:07:38.567Z,85.80
2017-09-22T22:10:06.253Z,85.70
2017-09-22T22:12:34.004Z,85.50
2017-09-22T22:15:01.750Z,85.60
2017-09-22T22:17:29.497Z,85.80
2017-09-22T22:19:57.245Z,85.50
2017-09-22T22:22:24.994Z,86.20
2017-09-22T22:24:52.656Z,86.10
2017-09-22T22:27:20.371Z,86.20
2017-09-22T22:29:48.010Z,86.10
2017-09-22T22:32:15.650Z,86.00
2017-09-22T22:34:43.421Z,85.60
2017-09-22T22:37:11.170Z,84.90
2017-09-22T22:39:38.914Z,84.80
2017-09-22T22:42:06.764Z,84.90
2017-09-22T22:44:34.422Z,85.30
2017-09-22T22:47:02.076Z,84.90
2017-09-22T22:49:30.218Z,84.30
2017-09-22T22:51:57.867Z,84.30
2017-09-22T22:54:25.526Z,85.20
2017-09-22T22:56:53.762Z,87.20
2017-09-22T22:59:21.407Z,87.20
2017-09-22T23:01:49.154Z,87.50
2017-09-22T23:04:16.963Z,87.30
2017-09-22T23:06:44.648Z,87.20
2017-09-22T23:09:12.396Z,86.90
2017-09-22T23:11:40.103Z,86.70
2017-09-22T23:14:07.890Z,86.30
2017-09-22T23:16:35.538Z,86.30
2017-09-22T23:19:03.285Z,86.10
2017-09-22T23:21:31.032Z,85.70
2017-09-22T23:23:58.779Z,85.20
2017-09-22T23:26:26.628Z,84.90
2017-09-22T23:28:54.376Z,85.00
2017-09-22T23:31:22.123Z,85.00
2017-09-22T23:33:49.870Z,85.10
2017-09-22T23:36:17.514Z,85.70
2017-09-22T23:38:45.263Z,86.00
2017-09-22T23:41:13.009Z,86.20
2017-09-22T23:43:40.756Z,86.50
2017-09-22T23:46:08.503Z,86.10
2017-09-22T23:48:36.280Z,85.70
2017-09-22T23:51:04.412Z,85.40
2017-09-22T23:53:32.059Z,85.40
2017-09-22T23:55:59.905Z,85.70
2017-09-22T23:58:27.560Z,85.90
